Wijnegem, Belgium
Current Conditions -  °F | °C
As of 11:50 PM on Thursday 27 Nov 2014 (Local Time) from EBAW Reporting Station
Overcast Overcast  
Wind Chill: 45°   Ceiling: 1900
Heat Index: 48°   Visibility: 4mi
Dew Point: 45°   Wind: 8mph
Humidity: 87%   Direction: 100°E
Pressure: 29.68"   Gusts: NA
Location:  51.23°N, 4.52°E
Report Text: EBAW 272250Z AUTO 10007KT 6000 OVC019/// 09/07 Q1005
Loading
Personal Weather Stations






























Interactive Weather Map New forecast layout! Learn more

10-Day Weather Forecast

Advertisements
Track Severe Weather on mobile